createdAt,value
2022-11-28T00:00:09.131Z,-1.40
2022-11-28T00:02:41.380Z,-1.40
2022-11-28T00:05:12.958Z,-1.40
2022-11-28T00:07:43.010Z,-1.50
2022-11-28T00:10:12.969Z,-1.40
2022-11-28T00:12:41.544Z,-1.40
2022-11-28T00:15:13.245Z,-1.40
2022-11-28T00:17:45.034Z,-1.40
2022-11-28T00:20:14.626Z,-1.40
2022-11-28T00:22:44.642Z,-1.40
2022-11-28T00:25:13.481Z,-1.40
2022-11-28T00:27:45.336Z,-1.40
2022-11-28T00:30:19.831Z,-1.40
2022-11-28T00:32:48.796Z,-1.40
2022-11-28T00:35:17.687Z,-1.40
2022-11-28T00:37:47.890Z,-1.40
2022-11-28T00:40:17.213Z,-1.40
2022-11-28T00:42:45.827Z,-1.40
2022-11-28T00:45:14.666Z,-1.40
2022-11-28T00:47:43.182Z,-1.30
2022-11-28T00:50:12.069Z,-1.30
2022-11-28T00:52:40.620Z,-1.40
2022-11-28T00:55:10.981Z,-1.40
2022-11-28T00:57:39.599Z,-1.40
2022-11-28T01:00:10.379Z,-1.40
2022-11-28T01:02:39.026Z,-1.40
2022-11-28T01:05:08.652Z,-1.40
2022-11-28T01:07:37.374Z,-1.40
2022-11-28T01:10:07.387Z,-1.30
2022-11-28T01:12:37.349Z,-1.30
2022-11-28T01:15:07.026Z,-1.30
2022-11-28T01:17:35.411Z,-1.20
2022-11-28T01:20:06.818Z,-1.20
2022-11-28T01:22:35.445Z,-1.20
2022-11-28T01:25:03.990Z,-1.30
2022-11-28T01:27:32.530Z,-1.30
2022-11-28T01:30:02.701Z,-1.30
2022-11-28T01:32:31.431Z,-1.30
2022-11-28T01:34:59.950Z,-1.40
2022-11-28T01:37:30.810Z,-1.40
2022-11-28T01:39:59.612Z,-1.50
2022-11-28T01:42:28.110Z,-1.40
2022-11-28T01:45:20.006Z,-1.40
2022-11-28T01:47:49.399Z,-1.40
2022-11-28T01:50:18.991Z,-1.40
2022-11-28T01:52:51.475Z,-1.40
2022-11-28T01:55:24.366Z,-1.40
2022-11-28T01:57:56.363Z,-1.40
2022-11-28T02:00:26.798Z,-1.40
2022-11-28T02:03:01.956Z,-1.40
2022-11-28T02:05:30.771Z,-1.40
2022-11-28T02:07:59.330Z,-1.40
2022-11-28T02:10:32.622Z,-1.40
2022-11-28T02:13:19.186Z,-1.40
2022-11-28T02:16:16.288Z,-1.30
2022-11-28T02:18:58.542Z,-1.30
2022-11-28T02:21:37.338Z,-1.30
2022-11-28T02:24:45.781Z,-1.30
2022-11-28T02:28:08.992Z,-1.30
2022-11-28T02:30:48.069Z,-1.40
2022-11-28T02:33:22.697Z,-1.30
2022-11-28T02:35:59.092Z,-1.30
2022-11-28T02:38:43.586Z,-1.30
2022-11-28T02:41:20.110Z,-1.30
2022-11-28T02:43:55.213Z,-1.30
2022-11-28T02:46:30.298Z,-1.30
2022-11-28T02:49:04.567Z,-1.30
2022-11-28T02:51:38.177Z,-1.20
2022-11-28T02:54:10.364Z,-1.30
2022-11-28T02:56:39.109Z,-1.30
2022-11-28T02:59:46.800Z,-1.30
2022-11-28T03:02:19.889Z,-1.40
2022-11-28T03:05:00.126Z,-1.40
2022-11-28T03:07:42.306Z,-1.50
2022-11-28T03:10:20.776Z,-1.50
2022-11-28T03:12:59.185Z,-1.60
2022-11-28T03:15:35.878Z,-1.60
2022-11-28T03:18:11.705Z,-1.60
2022-11-28T03:20:48.218Z,-1.60
2022-11-28T03:23:19.789Z,-1.60
2022-11-28T03:25:59.020Z,-1.60
2022-11-28T03:28:38.178Z,-1.60
2022-11-28T03:31:15.025Z,-1.60
2022-11-28T03:33:48.613Z,-1.60
2022-11-28T03:36:22.591Z,-1.50
2022-11-28T03:38:57.669Z,-1.40
2022-11-28T03:41:30.818Z,-1.40
2022-11-28T03:44:01.929Z,-1.30
2022-11-28T03:46:36.454Z,-1.30
2022-11-28T03:49:09.525Z,-1.30
2022-11-28T03:51:44.308Z,-1.30
2022-11-28T03:54:17.595Z,-1.30
2022-11-28T03:56:53.763Z,-1.30
2022-11-28T03:59:27.789Z,-1.30
2022-11-28T04:02:08.342Z,-1.30
2022-11-28T04:04:50.439Z,-1.30
2022-11-28T04:07:27.368Z,-1.30
2022-11-28T04:10:03.930Z,-1.30
2022-11-28T04:12:47.287Z,-1.30
2022-11-28T04:15:21.995Z,-1.30
2022-11-28T04:17:55.724Z,-1.30
2022-11-28T04:20:31.737Z,-1.40
2022-11-28T04:23:07.347Z,-1.40
2022-11-28T04:25:39.434Z,-1.40
2022-11-28T04:28:12.977Z,-1.40
2022-11-28T04:30:45.268Z,-1.40
2022-11-28T04:33:15.679Z,-1.40
2022-11-28T04:35:50.509Z,-1.40
2022-11-28T04:38:22.722Z,-1.30
2022-11-28T04:40:54.904Z,-1.40
2022-11-28T04:43:31.335Z,-1.30
2022-11-28T04:46:05.869Z,-1.30
2022-11-28T04:48:34.920Z,-1.30
2022-11-28T04:51:15.501Z,-1.30
2022-11-28T04:53:51.974Z,-1.30
2022-11-28T04:56:25.098Z,-1.30
2022-11-28T04:58:53.775Z,-1.30
2022-11-28T05:01:26.840Z,-1.40
2022-11-28T05:03:56.250Z,-1.40
2022-11-28T05:06:29.544Z,-1.30
2022-11-28T05:08:59.759Z,-1.30
2022-11-28T05:11:29.108Z,-1.30
2022-11-28T05:13:57.998Z,-1.30
2022-11-28T05:16:26.772Z,-1.30
2022-11-28T05:18:55.928Z,-1.30
2022-11-28T05:21:24.631Z,-1.20
2022-11-28T05:23:53.418Z,-1.20
2022-11-28T05:26:23.960Z,-1.30
2022-11-28T05:28:53.359Z,-1.30
2022-11-28T05:31:22.811Z,-1.30
2022-11-28T05:33:51.689Z,-1.40
2022-11-28T05:36:20.294Z,-1.40
2022-11-28T05:38:49.446Z,-1.40
2022-11-28T05:41:24.249Z,-1.40
2022-11-28T05:43:52.933Z,-1.40
2022-11-28T05:46:21.910Z,-1.40
2022-11-28T05:48:50.483Z,-1.30
2022-11-28T05:51:21.222Z,-1.30
2022-11-28T05:53:49.842Z,-1.30
2022-11-28T05:56:20.717Z,-1.30
2022-11-28T05:58:54.426Z,-1.30
2022-11-28T06:01:25.168Z,-1.30
2022-11-28T06:03:59.915Z,-1.20
2022-11-28T06:06:30.481Z,-1.20
2022-11-28T06:08:59.498Z,-1.20
2022-11-28T06:11:30.415Z,-1.20
2022-11-28T06:14:00.341Z,-1.20
2022-11-28T06:16:30.884Z,-1.20
2022-11-28T06:19:01.656Z,-1.20
2022-11-28T06:21:31.438Z,-1.30
2022-11-28T06:24:01.242Z,-1.20
2022-11-28T06:26:30.071Z,-1.20
2022-11-28T06:29:00.085Z,-1.20
2022-11-28T06:31:31.100Z,-1.30
2022-11-28T06:34:00.095Z,-1.20
2022-11-28T06:36:30.866Z,-1.20
2022-11-28T06:38:59.605Z,-1.20
2022-11-28T06:41:28.337Z,-1.20
2022-11-28T06:43:57.535Z,-1.30
2022-11-28T06:46:27.556Z,-1.30
2022-11-28T06:48:56.322Z,-1.30
2022-11-28T06:51:25.946Z,-1.30
2022-11-28T06:53:55.948Z,-1.30
2022-11-28T06:56:24.500Z,-1.30
2022-11-28T06:58:56.497Z,-1.30
2022-11-28T07:01:28.209Z,-1.30
2022-11-28T07:03:57.103Z,-1.30
2022-11-28T07:06:27.524Z,-1.40
2022-11-28T07:08:57.698Z,-1.40
2022-11-28T07:11:28.098Z,-1.40
2022-11-28T07:13:57.655Z,-1.40
2022-11-28T07:16:29.299Z,-1.40
2022-11-28T07:19:00.080Z,-1.40
2022-11-28T07:21:29.917Z,-1.40
2022-11-28T07:23:59.166Z,-1.40
2022-11-28T07:26:28.208Z,-1.40
2022-11-28T07:28:58.394Z,-1.40
2022-11-28T07:31:32.441Z,-1.40
2022-11-28T07:34:04.386Z,-1.40
2022-11-28T07:36:33.616Z,-1.30
2022-11-28T07:39:05.571Z,-1.30
2022-11-28T07:41:34.284Z,-1.30
2022-11-28T07:44:04.183Z,-1.30
2022-11-28T07:46:35.147Z,-1.30
2022-11-28T07:49:06.043Z,-1.30
2022-11-28T07:51:35.484Z,-1.30
2022-11-28T07:54:04.928Z,-1.30
2022-11-28T07:56:57.316Z,-1.30
2022-11-28T07:59:23.953Z,-1.30
2022-11-28T08:01:54.208Z,-1.20
2022-11-28T08:04:23.176Z,-1.20
2022-11-28T08:06:51.854Z,-1.20
2022-11-28T08:09:20.612Z,-1.20
2022-11-28T08:11:51.389Z,-1.10
2022-11-28T08:14:19.918Z,-1.00
2022-11-28T08:16:49.679Z,-1.00
2022-11-28T08:19:24.706Z,-1.00
2022-11-28T08:21:53.603Z,-1.00
2022-11-28T08:24:22.213Z,-1.00
2022-11-28T08:26:50.784Z,-0.90
2022-11-28T08:29:19.675Z,-1.00
2022-11-28T08:31:48.721Z,-1.00
2022-11-28T08:34:17.336Z,-1.00
2022-11-28T08:36:49.149Z,-1.00
2022-11-28T08:39:25.458Z,-0.90
2022-11-28T08:41:57.341Z,-0.90
2022-11-28T08:44:26.609Z,-0.80
2022-11-28T08:46:55.423Z,-0.80
2022-11-28T08:49:24.026Z,-0.90
2022-11-28T08:51:53.954Z,-0.90
2022-11-28T08:54:22.542Z,-0.90
2022-11-28T08:56:51.112Z,-0.90
2022-11-28T08:59:19.673Z,-0.90
2022-11-28T09:01:48.275Z,-0.90
2022-11-28T09:04:16.923Z,-0.90
2022-11-28T09:06:45.454Z,-0.90
2022-11-28T09:09:15.707Z,-0.90
2022-11-28T09:11:44.742Z,-0.80
2022-11-28T09:14:13.437Z,-0.80
2022-11-28T09:16:42.751Z,-0.80
2022-11-28T09:19:11.442Z,-0.80
2022-11-28T09:21:40.744Z,-0.80
2022-11-28T09:24:10.596Z,-0.70
2022-11-28T09:26:40.317Z,-0.70
2022-11-28T09:29:09.038Z,-0.70
2022-11-28T09:31:37.565Z,-0.70
2022-11-28T09:34:06.055Z,-0.60
2022-11-28T09:36:34.821Z,-0.60
2022-11-28T09:39:04.856Z,-0.60
2022-11-28T09:41:55.722Z,-0.60
2022-11-28T09:44:27.849Z,-0.50
2022-11-28T09:47:01.592Z,-0.50
2022-11-28T09:49:41.106Z,-0.50
2022-11-28T09:52:17.164Z,-0.40
2022-11-28T09:54:50.305Z,-0.40
2022-11-28T09:57:27.602Z,-0.40
2022-11-28T09:59:56.289Z,-0.40
2022-11-28T10:02:32.088Z,-0.40
2022-11-28T10:05:11.439Z,-0.40
2022-11-28T10:07:54.673Z,-0.40
2022-11-28T10:10:32.058Z,-0.30
2022-11-28T10:15:44.096Z,-0.10
2022-11-28T10:18:27.422Z,-0.10
2022-11-28T10:20:59.400Z,-0.20
2022-11-28T10:23:31.574Z,-0.10
2022-11-28T10:26:05.975Z,-0.10
2022-11-28T10:28:40.014Z,-0.10
2022-11-28T10:31:16.906Z,0.00
2022-11-28T10:33:49.943Z,0.00
2022-11-28T10:36:25.365Z,0.10
2022-11-28T10:38:54.343Z,0.10
2022-11-28T10:41:28.869Z,0.10
2022-11-28T10:44:04.511Z,0.10
2022-11-28T10:46:49.359Z,0.10
2022-11-28T10:49:43.594Z,0.10
2022-11-28T10:52:20.681Z,0.10
2022-11-28T10:55:12.790Z,0.10
2022-11-28T10:57:47.374Z,0.10
2022-11-28T11:00:19.629Z,0.10
2022-11-28T11:02:50.462Z,0.10
2022-11-28T11:05:21.956Z,0.10
2022-11-28T11:07:53.651Z,0.00
2022-11-28T11:10:27.158Z,0.10
2022-11-28T11:12:56.152Z,0.10
2022-11-28T11:15:32.627Z,0.10
2022-11-28T11:18:05.501Z,0.00
2022-11-28T11:20:37.549Z,0.00
2022-11-28T11:23:16.567Z,0.00
2022-11-28T11:25:52.307Z,0.00
2022-11-28T11:28:40.659Z,0.00
2022-11-28T11:31:24.710Z,0.00
2022-11-28T11:33:54.791Z,0.00
2022-11-28T11:36:29.322Z,0.00
2022-11-28T11:39:22.169Z,0.00
2022-11-28T11:41:52.101Z,0.00
2022-11-28T11:44:35.497Z,0.00
2022-11-28T11:47:07.898Z,0.00
2022-11-28T11:49:37.749Z,0.00
2022-11-28T11:52:06.816Z,0.00
2022-11-28T11:54:35.483Z,0.10
2022-11-28T11:57:31.465Z,0.00
2022-11-28T11:59:57.161Z,0.00
2022-11-28T12:02:32.892Z,0.10
2022-11-28T12:05:06.709Z,0.00
2022-11-28T12:07:40.468Z,0.10
2022-11-28T12:10:16.489Z,0.10
2022-11-28T12:12:45.164Z,0.10
2022-11-28T12:15:18.396Z,0.10
2022-11-28T12:18:04.044Z,0.10
2022-11-28T12:20:43.183Z,0.10
2022-11-28T12:23:29.745Z,0.10
2022-11-28T12:26:04.894Z,0.10
2022-11-28T12:28:47.454Z,0.10
2022-11-28T12:31:22.935Z,0.10
2022-11-28T12:34:06.161Z,0.10
2022-11-28T12:36:38.673Z,0.10
2022-11-28T12:39:19.069Z,0.10
2022-11-28T12:42:19.885Z,0.10
2022-11-28T12:44:59.986Z,0.00
2022-11-28T12:47:41.629Z,0.10
2022-11-28T12:50:24.442Z,0.10
2022-11-28T12:53:03.690Z,0.00
2022-11-28T12:55:45.132Z,0.00
2022-11-28T12:58:22.160Z,0.00
2022-11-28T13:01:06.910Z,0.10
2022-11-28T13:03:43.936Z,0.10
2022-11-28T13:06:24.977Z,0.10
2022-11-28T13:09:16.735Z,0.20
2022-11-28T13:11:55.728Z,0.20
2022-11-28T13:14:38.044Z,0.20
2022-11-28T13:17:18.139Z,0.20
2022-11-28T13:19:53.455Z,0.20
2022-11-28T13:22:28.237Z,0.20
2022-11-28T13:25:01.947Z,0.20
2022-11-28T13:27:38.182Z,0.20
2022-11-28T13:30:21.103Z,0.20
2022-11-28T13:32:59.679Z,0.20
2022-11-28T13:35:29.894Z,0.20
2022-11-28T13:40:58.287Z,0.10
2022-11-28T13:43:33.294Z,0.10
2022-11-28T13:46:02.166Z,0.10
2022-11-28T13:51:45.574Z,0.10
2022-11-28T13:54:48.207Z,0.10
2022-11-28T13:57:28.179Z,0.10
2022-11-28T14:00:03.841Z,0.10
2022-11-28T14:02:46.155Z,0.10
2022-11-28T14:05:34.417Z,0.10
2022-11-28T14:08:04.416Z,0.10
2022-11-28T14:11:00.899Z,0.10
2022-11-28T14:13:45.088Z,0.10
2022-11-28T14:16:25.836Z,0.10
2022-11-28T14:19:23.938Z,0.20
2022-11-28T14:22:10.309Z,0.20
2022-11-28T14:24:50.996Z,0.20
2022-11-28T14:27:24.665Z,0.20
2022-11-28T14:29:57.205Z,0.20
2022-11-28T14:32:32.192Z,0.20
2022-11-28T14:35:02.173Z,0.20
2022-11-28T14:37:57.904Z,0.20
2022-11-28T14:41:06.459Z,0.20
2022-11-28T14:43:38.639Z,0.20
2022-11-28T14:46:30.162Z,0.20
2022-11-28T14:49:23.956Z,0.20
2022-11-28T14:52:38.598Z,0.10
2022-11-28T14:55:20.711Z,0.10
2022-11-28T14:57:59.283Z,0.10
2022-11-28T15:00:47.672Z,0.20
2022-11-28T15:03:27.163Z,0.20
2022-11-28T15:06:03.439Z,0.10
2022-11-28T15:08:54.409Z,0.10
2022-11-28T15:11:59.003Z,0.20
2022-11-28T15:14:31.753Z,0.20
2022-11-28T15:17:06.323Z,0.20
2022-11-28T15:19:39.308Z,0.10
2022-11-28T15:22:31.010Z,0.10
2022-11-28T15:25:01.091Z,0.20
2022-11-28T15:27:30.161Z,0.20
2022-11-28T15:30:04.454Z,0.20
2022-11-28T15:32:35.584Z,0.20
2022-11-28T15:35:12.280Z,0.10
2022-11-28T15:37:49.041Z,0.20
2022-11-28T15:40:22.950Z,0.20
2022-11-28T15:42:52.155Z,0.20
2022-11-28T15:45:26.413Z,0.10
2022-11-28T15:47:58.044Z,0.20
2022-11-28T15:50:29.977Z,0.10
2022-11-28T15:53:00.383Z,0.20
2022-11-28T15:55:33.057Z,0.20
2022-11-28T15:58:21.091Z,0.20
2022-11-28T16:01:00.237Z,0.20
2022-11-28T16:03:34.927Z,0.20
2022-11-28T16:06:05.933Z,0.20
2022-11-28T16:08:37.894Z,0.20
2022-11-28T16:11:08.969Z,0.20
2022-11-28T16:13:40.541Z,0.20
2022-11-28T16:16:13.995Z,0.20
2022-11-28T16:18:48.072Z,0.10
2022-11-28T16:21:17.265Z,0.20
2022-11-28T16:23:45.819Z,0.20
2022-11-28T16:26:30.050Z,0.20
2022-11-28T16:29:03.709Z,0.20
2022-11-28T16:31:32.516Z,0.20
2022-11-28T16:34:03.951Z,0.20
2022-11-28T16:36:36.907Z,0.20
2022-11-28T16:39:09.168Z,0.20
2022-11-28T16:41:38.684Z,0.20
2022-11-28T16:44:12.394Z,0.20
2022-11-28T16:46:42.644Z,0.20
2022-11-28T16:49:34.628Z,0.20
2022-11-28T16:52:42.456Z,0.20
2022-11-28T16:55:41.735Z,0.20
2022-11-28T16:58:13.811Z,0.20
2022-11-28T17:00:45.399Z,0.20
2022-11-28T17:03:48.728Z,0.20
2022-11-28T17:06:25.202Z,0.20
2022-11-28T17:08:54.833Z,0.20
2022-11-28T17:11:28.005Z,0.20
2022-11-28T17:13:57.865Z,0.20
2022-11-28T17:16:28.431Z,0.20
2022-11-28T17:18:56.871Z,0.20
2022-11-28T17:21:33.225Z,0.20
2022-11-28T17:24:02.705Z,0.20
2022-11-28T17:26:31.863Z,0.20
2022-11-28T17:29:00.771Z,0.20
2022-11-28T17:31:30.614Z,0.20
2022-11-28T17:33:59.022Z,0.20
2022-11-28T17:36:29.067Z,0.20
2022-11-28T17:39:02.296Z,0.20
2022-11-28T17:41:33.822Z,0.20
2022-11-28T17:44:02.929Z,0.20
2022-11-28T17:46:32.896Z,0.20
2022-11-28T17:49:01.532Z,0.20
2022-11-28T17:51:31.532Z,0.20
2022-11-28T17:54:00.080Z,0.20
2022-11-28T17:56:28.898Z,0.20
2022-11-28T17:58:57.389Z,0.10
2022-11-28T18:01:29.918Z,0.10
2022-11-28T18:04:01.139Z,0.10
2022-11-28T18:06:31.625Z,0.10
2022-11-28T18:09:01.528Z,0.10
2022-11-28T18:11:30.868Z,0.10
2022-11-28T18:13:59.841Z,0.10
2022-11-28T18:16:33.004Z,0.20
2022-11-28T18:19:02.031Z,0.20
2022-11-28T18:21:32.114Z,0.20
2022-11-28T18:24:00.945Z,0.20
2022-11-28T18:26:29.712Z,0.20
2022-11-28T18:29:00.492Z,0.20
2022-11-28T18:31:31.038Z,0.20
2022-11-28T18:34:05.078Z,0.20
2022-11-28T18:36:38.962Z,0.20
2022-11-28T18:39:10.189Z,0.30
2022-11-28T18:41:39.973Z,0.20
2022-11-28T18:44:11.064Z,0.20
2022-11-28T18:46:40.533Z,0.20
2022-11-28T18:49:09.211Z,0.20
2022-11-28T18:51:40.593Z,0.20
2022-11-28T18:54:12.450Z,0.20
2022-11-28T18:56:43.811Z,0.30
2022-11-28T18:59:13.686Z,0.30
2022-11-28T19:01:42.468Z,0.30
2022-11-28T19:04:15.640Z,0.30
2022-11-28T19:06:48.546Z,0.30
2022-11-28T19:09:18.739Z,0.30
2022-11-28T19:11:47.327Z,0.30
2022-11-28T19:14:17.577Z,0.30
2022-11-28T19:16:48.546Z,0.30
2022-11-28T19:19:18.712Z,0.30
2022-11-28T19:21:51.403Z,0.30
2022-11-28T19:24:20.005Z,0.40
2022-11-28T19:26:48.745Z,0.40
2022-11-28T19:29:17.751Z,0.40
2022-11-28T19:31:46.402Z,0.30
2022-11-28T19:34:17.428Z,0.40
2022-11-28T19:36:49.222Z,0.30
2022-11-28T19:39:22.252Z,0.40
2022-11-28T19:41:52.140Z,0.30
2022-11-28T19:44:24.018Z,0.30
2022-11-28T19:46:53.591Z,0.30
2022-11-28T19:49:24.013Z,0.30
2022-11-28T19:51:54.448Z,0.30
2022-11-28T19:54:24.475Z,0.30
2022-11-28T19:56:56.042Z,0.30
2022-11-28T19:59:24.943Z,0.40
2022-11-28T20:01:53.977Z,0.30
2022-11-28T20:04:23.821Z,0.40
2022-11-28T20:06:52.418Z,0.40
2022-11-28T20:09:21.029Z,0.40
2022-11-28T20:11:51.153Z,0.40
2022-11-28T20:14:20.894Z,0.40
2022-11-28T20:16:49.265Z,0.40
2022-11-28T20:19:18.462Z,0.40
2022-11-28T20:21:47.461Z,0.40
2022-11-28T20:24:16.810Z,0.40
2022-11-28T20:26:47.457Z,0.40
2022-11-28T20:29:19.138Z,0.40
2022-11-28T20:31:50.161Z,0.40
2022-11-28T20:34:20.113Z,0.40
2022-11-28T20:36:56.509Z,0.40
2022-11-28T20:39:25.325Z,0.40
2022-11-28T20:41:53.829Z,0.40
2022-11-28T20:44:24.066Z,0.50
2022-11-28T20:46:52.747Z,0.40
2022-11-28T20:51:50.474Z,0.50
2022-11-28T20:54:19.476Z,0.50
2022-11-28T20:59:38.135Z,0.50
2022-11-28T21:02:06.780Z,0.50
2022-11-28T21:04:35.367Z,0.50
2022-11-28T21:07:03.897Z,0.40
2022-11-28T21:09:32.517Z,0.40
2022-11-28T21:12:01.986Z,0.40
2022-11-28T21:14:30.665Z,0.50
2022-11-28T21:17:01.438Z,0.40
2022-11-28T21:19:30.050Z,0.40
2022-11-28T21:21:58.510Z,0.40
2022-11-28T21:24:28.583Z,0.40
2022-11-28T21:26:57.123Z,0.40
2022-11-28T21:29:26.278Z,0.40
2022-11-28T21:31:55.321Z,0.40
2022-11-28T21:34:25.296Z,0.50
2022-11-28T21:36:55.370Z,0.50
2022-11-28T21:39:24.015Z,0.50
2022-11-28T21:41:52.703Z,0.40
2022-11-28T21:44:21.316Z,0.50
2022-11-28T21:46:50.896Z,0.50
2022-11-28T21:49:19.669Z,0.50
2022-11-28T21:51:50.042Z,0.40
2022-11-28T21:54:18.624Z,0.40
2022-11-28T21:56:47.317Z,0.50
2022-11-28T21:59:16.615Z,0.50
2022-11-28T22:01:46.160Z,0.50
2022-11-28T22:04:14.718Z,0.50
2022-11-28T22:06:43.642Z,0.50
2022-11-28T22:09:13.541Z,0.50
2022-11-28T22:11:42.228Z,0.50
2022-11-28T22:14:10.864Z,0.50
2022-11-28T22:16:39.782Z,0.50
2022-11-28T22:19:08.515Z,0.50
2022-11-28T22:21:54.767Z,0.50
2022-11-28T22:24:26.161Z,0.50
2022-11-28T22:26:56.868Z,0.50
2022-11-28T22:29:25.911Z,0.50
2022-11-28T22:31:55.639Z,0.50
2022-11-28T22:34:25.087Z,0.50
2022-11-28T22:36:53.967Z,0.50
2022-11-28T22:39:23.577Z,0.50
2022-11-28T22:41:53.694Z,0.50
2022-11-28T22:44:22.550Z,0.40
2022-11-28T22:46:51.430Z,0.40
2022-11-28T22:49:20.567Z,0.50
2022-11-28T22:51:49.333Z,0.50
2022-11-28T22:54:18.540Z,0.50
2022-11-28T22:56:47.264Z,0.40
2022-11-28T22:59:18.145Z,0.40
2022-11-28T23:01:46.869Z,0.40
2022-11-28T23:04:16.298Z,0.40
2022-11-28T23:06:45.359Z,0.50
2022-11-28T23:09:15.692Z,0.50
2022-11-28T23:11:46.412Z,0.50
2022-11-28T23:14:17.115Z,0.50
2022-11-28T23:16:46.735Z,0.50
2022-11-28T23:19:17.567Z,0.50
2022-11-28T23:21:48.563Z,0.50
2022-11-28T23:24:19.126Z,0.50
2022-11-28T23:26:48.919Z,0.50
2022-11-28T23:29:20.370Z,0.50
2022-11-28T23:31:50.868Z,0.50
2022-11-28T23:34:19.689Z,0.50
2022-11-28T23:36:49.214Z,0.50
2022-11-28T23:39:19.359Z,0.50
2022-11-28T23:41:48.804Z,0.50
2022-11-28T23:44:20.219Z,0.50
2022-11-28T23:46:49.531Z,0.60
2022-11-28T23:49:18.531Z,0.60
2022-11-28T23:51:47.319Z,0.60
2022-11-28T23:54:16.794Z,0.60
2022-11-28T23:56:45.577Z,0.60
2022-11-28T23:59:17.237Z,0.60
